createdAt,value
2019-01-22T00:01:12.955Z,18.53
2019-01-22T00:03:20.375Z,17.23
2019-01-22T00:05:27.697Z,16.10
2019-01-22T00:07:35.122Z,17.37
2019-01-22T00:09:42.589Z,16.40
2019-01-22T00:11:49.946Z,15.63
2019-01-22T00:13:57.731Z,15.47
2019-01-22T00:16:05.187Z,18.80
2019-01-22T00:18:12.562Z,15.67
2019-01-22T00:20:20.747Z,17.87
2019-01-22T00:22:28.079Z,16.53
2019-01-22T00:24:35.808Z,15.93
2019-01-22T00:26:43.439Z,17.37
2019-01-22T00:28:50.894Z,16.60
2019-01-22T00:30:58.603Z,17.13
2019-01-22T00:33:06.078Z,16.60
2019-01-22T00:35:13.454Z,17.17
2019-01-22T00:37:20.811Z,18.53
2019-01-22T00:39:28.466Z,19.17
2019-01-22T00:41:35.851Z,20.87
2019-01-22T00:43:43.276Z,20.83
2019-01-22T00:45:50.887Z,19.33
2019-01-22T00:47:58.029Z,20.00
2019-01-22T00:50:06.000Z,20.53
2019-01-22T00:52:13.855Z,19.60
2019-01-22T00:54:21.273Z,21.70
2019-01-22T00:56:28.748Z,21.17
2019-01-22T00:58:36.842Z,22.97
2019-01-22T01:00:44.215Z,18.67
2019-01-22T01:02:51.959Z,20.77
2019-01-22T01:04:59.391Z,22.40
2019-01-22T01:07:06.694Z,18.80
2019-01-22T01:09:13.994Z,19.27
2019-01-22T01:11:21.634Z,18.53
2019-01-22T01:13:29.143Z,20.97
2019-01-22T01:15:36.455Z,19.50
2019-01-22T01:17:44.074Z,21.10
2019-01-22T01:19:51.348Z,20.53
2019-01-22T01:21:58.729Z,19.13
2019-01-22T01:24:06.464Z,19.10
2019-01-22T01:26:14.321Z,20.30
2019-01-22T01:28:21.666Z,19.80
2019-01-22T01:30:29.347Z,19.00
2019-01-22T01:32:36.789Z,19.00
2019-01-22T01:34:44.530Z,17.87
2019-01-22T01:36:52.020Z,17.37
2019-01-22T01:38:59.304Z,17.00
2019-01-22T01:41:06.722Z,17.43
2019-01-22T01:43:14.334Z,18.30
2019-01-22T01:45:21.814Z,18.63
2019-01-22T01:47:31.410Z,17.57
2019-01-22T01:49:39.095Z,17.63
2019-01-22T01:51:46.519Z,17.97
2019-01-22T01:53:53.973Z,18.73
2019-01-22T01:56:01.414Z,17.30
2019-01-22T01:58:08.802Z,18.47
2019-01-22T02:00:21.818Z,17.50
2019-01-22T02:02:29.152Z,17.43
2019-01-22T02:04:36.363Z,17.77
2019-01-22T02:06:43.919Z,18.27
2019-01-22T02:08:51.415Z,18.30
2019-01-22T02:10:58.840Z,17.83
2019-01-22T02:13:14.251Z,18.43
2019-01-22T02:16:00.754Z,17.93
2019-01-22T02:19:09.728Z,17.50
2019-01-22T02:22:21.104Z,17.93
2019-01-22T02:25:16.472Z,18.70
2019-01-22T02:28:34.463Z,18.37
2019-01-22T02:31:43.180Z,18.90
2019-01-22T02:34:28.271Z,18.67
2019-01-22T02:37:31.931Z,18.33
2019-01-22T02:40:21.146Z,19.23
2019-01-22T02:43:42.621Z,20.53
2019-01-22T02:46:28.318Z,18.53
2019-01-22T02:49:44.593Z,19.97
2019-01-22T02:52:39.208Z,20.20
2019-01-22T02:55:04.512Z,19.57
2019-01-22T02:58:25.213Z,19.33
2019-01-22T03:01:16.643Z,19.30
2019-01-22T03:04:21.116Z,19.90
2019-01-22T03:07:01.963Z,22.23
2019-01-22T03:10:12.729Z,22.63
2019-01-22T03:12:58.292Z,21.47
2019-01-22T03:16:14.664Z,21.77
2019-01-22T03:18:57.386Z,24.80
2019-01-22T03:21:48.335Z,20.53
2019-01-22T03:25:05.646Z,31.77
2019-01-22T03:28:15.742Z,40.77
2019-01-22T03:31:19.829Z,54.70
2019-01-22T03:33:45.462Z,27.13
2019-01-22T03:36:39.717Z,23.47
2019-01-22T03:39:41.040Z,24.27
2019-01-22T03:42:55.694Z,23.57
2019-01-22T03:46:10.720Z,27.57
2019-01-22T03:49:25.671Z,26.03
2019-01-22T03:51:54.597Z,25.80
2019-01-22T03:55:12.014Z,25.50
2019-01-22T03:57:27.175Z,26.20
2019-01-22T03:59:34.622Z,24.47
2019-01-22T04:01:42.104Z,24.30
2019-01-22T04:03:49.598Z,25.37
2019-01-22T04:06:00.448Z,24.77
2019-01-22T04:08:08.800Z,26.97
2019-01-22T04:10:42.445Z,25.20
2019-01-22T04:12:49.826Z,27.50
2019-01-22T04:14:57.201Z,28.23
2019-01-22T04:17:04.615Z,26.57
2019-01-22T04:19:11.691Z,33.03
2019-01-22T04:21:21.660Z,29.97
2019-01-22T04:24:06.485Z,24.67
2019-01-22T04:27:06.802Z,27.17
2019-01-22T04:30:08.280Z,24.03
2019-01-22T04:32:57.938Z,22.40
2019-01-22T04:36:12.430Z,23.27
2019-01-22T04:38:55.244Z,21.93
2019-01-22T04:42:13.314Z,28.43
2019-01-22T04:45:09.921Z,34.47
2019-01-22T04:48:13.797Z,25.87
2019-01-22T04:51:29.320Z,24.93
2019-01-22T04:54:23.286Z,24.60
2019-01-22T04:57:07.844Z,23.90
2019-01-22T05:00:09.525Z,24.70
2019-01-22T05:03:24.905Z,23.83
2019-01-22T05:06:33.007Z,23.87
2019-01-22T05:09:32.538Z,25.87
2019-01-22T05:12:43.626Z,24.97
2019-01-22T05:16:33.342Z,26.83
2019-01-22T05:19:17.994Z,25.97
2019-01-22T05:22:13.475Z,27.83
2019-01-22T05:25:34.680Z,31.13
2019-01-22T05:28:45.137Z,50.60
2019-01-22T05:31:46.280Z,38.90
2019-01-22T05:34:44.153Z,52.27
2019-01-22T05:37:53.806Z,33.77
2019-01-22T05:41:32.043Z,29.37
2019-01-22T05:44:11.381Z,25.80
2019-01-22T05:47:01.939Z,32.67
2019-01-22T05:49:39.160Z,27.83
2019-01-22T05:52:17.748Z,27.90
2019-01-22T05:54:53.763Z,29.73
2019-01-22T05:57:10.347Z,27.77
2019-01-22T05:59:52.837Z,28.60
2019-01-22T06:02:09.666Z,26.97
2019-01-22T06:05:34.112Z,29.50
2019-01-22T06:08:24.492Z,33.03
2019-01-22T06:11:42.866Z,30.03
2019-01-22T06:14:26.906Z,31.60
2019-01-22T06:17:19.613Z,29.00
2019-01-22T06:20:31.018Z,33.27
2019-01-22T06:23:38.788Z,35.73
2019-01-22T06:26:12.837Z,33.13
2019-01-22T06:28:57.245Z,28.67
2019-01-22T06:31:20.212Z,29.23
2019-01-22T06:34:31.880Z,30.87
2019-01-22T06:37:17.716Z,30.90
2019-01-22T06:39:57.569Z,27.27
2019-01-22T06:43:35.343Z,31.73
2019-01-22T06:46:46.821Z,26.83
2019-01-22T06:49:21.097Z,28.97
2019-01-22T06:52:17.050Z,31.70
2019-01-22T06:55:39.764Z,27.93
2019-01-22T06:58:45.905Z,27.50
2019-01-22T07:02:05.844Z,28.97
2019-01-22T07:04:47.448Z,30.33
2019-01-22T07:08:07.793Z,30.60
2019-01-22T07:11:11.934Z,30.10
2019-01-22T07:13:58.978Z,27.00
2019-01-22T07:17:11.172Z,27.50
2019-01-22T07:20:05.122Z,27.37
2019-01-22T07:22:51.663Z,27.73
2019-01-22T07:26:00.772Z,28.20
2019-01-22T07:29:11.347Z,26.43
2019-01-22T07:32:05.709Z,27.97
2019-01-22T07:35:01.472Z,26.23
2019-01-22T07:38:19.555Z,26.63
2019-01-22T07:41:15.138Z,24.77
2019-01-22T07:44:06.531Z,28.57
2019-01-22T07:47:14.904Z,27.93
2019-01-22T07:50:16.894Z,26.37
2019-01-22T07:52:46.660Z,30.77
2019-01-22T07:55:58.824Z,29.37
2019-01-22T07:58:57.173Z,29.27
2019-01-22T08:02:02.918Z,28.87
2019-01-22T08:05:26.361Z,26.87
2019-01-22T08:08:21.040Z,30.60
2019-01-22T08:10:55.875Z,27.63
2019-01-22T08:13:56.144Z,28.53
2019-01-22T08:17:13.762Z,30.57
2019-01-22T08:20:06.636Z,31.20
2019-01-22T08:23:21.168Z,28.30
2019-01-22T08:26:09.573Z,28.70
2019-01-22T08:28:35.327Z,27.00
2019-01-22T08:31:46.173Z,28.37
2019-01-22T08:34:48.169Z,27.60
2019-01-22T08:37:50.053Z,28.20
2019-01-22T08:40:44.355Z,29.77
2019-01-22T08:43:41.322Z,27.40
2019-01-22T08:46:55.649Z,28.97
2019-01-22T08:50:17.724Z,28.03
2019-01-22T08:53:18.239Z,27.67
2019-01-22T08:56:33.379Z,30.53
2019-01-22T08:59:42.731Z,28.00
2019-01-22T09:02:38.216Z,25.97
2019-01-22T09:05:27.652Z,27.97
2019-01-22T09:08:37.802Z,28.03
2019-01-22T09:12:11.809Z,25.23
2019-01-22T09:15:11.794Z,24.90
2019-01-22T09:18:10.879Z,24.33
2019-01-22T09:21:01.605Z,26.93
2019-01-22T09:24:23.381Z,26.03
2019-01-22T09:27:48.975Z,25.37
2019-01-22T09:30:41.004Z,26.70
2019-01-22T09:33:17.294Z,25.77
2019-01-22T09:36:13.153Z,28.00
2019-01-22T09:38:20.726Z,28.73
2019-01-22T09:40:28.193Z,28.20
2019-01-22T09:42:35.693Z,29.13
2019-01-22T09:44:43.114Z,29.90
2019-01-22T09:46:50.774Z,28.80
2019-01-22T09:48:58.224Z,31.07
2019-01-22T09:51:05.634Z,29.53
2019-01-22T09:53:13.471Z,32.47
2019-01-22T09:55:22.593Z,30.90
2019-01-22T09:57:30.038Z,31.43
2019-01-22T09:59:37.485Z,30.37
2019-01-22T10:01:45.039Z,28.03
2019-01-22T10:03:52.441Z,29.93
2019-01-22T10:05:59.937Z,30.10
2019-01-22T10:08:07.400Z,28.77
2019-01-22T10:10:17.957Z,27.70
2019-01-22T10:12:25.782Z,28.27
2019-01-22T10:14:33.337Z,29.43
2019-01-22T10:16:40.767Z,27.30
2019-01-22T10:18:48.744Z,26.87
2019-01-22T10:20:56.291Z,30.23
2019-01-22T10:23:03.685Z,26.43
2019-01-22T10:25:11.519Z,25.53
2019-01-22T10:27:19.017Z,27.17
2019-01-22T10:29:26.345Z,27.43
2019-01-22T10:31:33.676Z,28.83
2019-01-22T10:33:41.066Z,24.60
2019-01-22T10:35:48.561Z,23.93
2019-01-22T10:37:55.883Z,24.10
2019-01-22T10:40:04.078Z,22.57
2019-01-22T10:42:11.570Z,23.83
2019-01-22T10:44:19.183Z,22.93
2019-01-22T10:46:26.525Z,22.67
2019-01-22T10:48:33.891Z,25.00
2019-01-22T10:50:41.306Z,23.53
2019-01-22T10:52:48.805Z,22.47
2019-01-22T10:54:56.214Z,24.20
2019-01-22T10:57:03.722Z,22.73
2019-01-22T10:59:11.034Z,22.50
2019-01-22T11:01:18.538Z,22.90
2019-01-22T11:03:26.119Z,21.20
2019-01-22T11:05:41.808Z,19.37
2019-01-22T11:07:49.254Z,19.30
2019-01-22T11:09:56.677Z,19.80
2019-01-22T11:12:04.074Z,22.50
2019-01-22T11:14:11.549Z,21.93
2019-01-22T11:16:18.984Z,22.27
2019-01-22T11:18:26.417Z,21.97
2019-01-22T11:20:33.854Z,20.13
2019-01-22T11:22:41.294Z,20.93
2019-01-22T11:24:52.741Z,19.60
2019-01-22T11:26:57.951Z,20.87
2019-01-22T11:29:05.404Z,20.17
2019-01-22T11:31:12.884Z,21.23
2019-01-22T11:33:20.279Z,21.37
2019-01-22T11:35:27.474Z,21.40
2019-01-22T11:37:34.983Z,21.30
2019-01-22T11:39:42.205Z,23.20
2019-01-22T11:41:49.982Z,20.00
2019-01-22T11:43:57.292Z,23.23
2019-01-22T11:46:04.770Z,21.70
2019-01-22T11:48:13.588Z,23.33
2019-01-22T11:50:21.824Z,27.13
2019-01-22T11:52:29.309Z,24.43
2019-01-22T11:54:36.839Z,23.17
2019-01-22T11:56:44.243Z,24.70
2019-01-22T11:58:51.651Z,22.23
2019-01-22T12:01:02.566Z,22.60
2019-01-22T12:03:10.092Z,23.97
2019-01-22T12:05:17.483Z,22.00
2019-01-22T12:07:24.879Z,24.30
2019-01-22T12:09:32.238Z,23.33
2019-01-22T12:11:39.575Z,23.67
2019-01-22T12:13:53.854Z,23.03
2019-01-22T12:15:56.172Z,23.63
2019-01-22T12:18:03.546Z,22.70
2019-01-22T12:20:17.384Z,22.20
2019-01-22T12:22:25.113Z,22.73
2019-01-22T12:24:32.454Z,22.43
2019-01-22T12:26:40.108Z,24.77
2019-01-22T12:28:47.539Z,25.30
2019-01-22T12:30:54.809Z,24.33
2019-01-22T12:33:02.609Z,23.20
2019-01-22T12:35:10.973Z,21.80
2019-01-22T12:37:18.779Z,23.17
2019-01-22T12:39:26.189Z,25.27
2019-01-22T12:41:33.588Z,24.03
2019-01-22T12:43:41.434Z,24.77
2019-01-22T12:45:49.065Z,25.37
2019-01-22T12:47:56.342Z,22.10
2019-01-22T12:50:03.805Z,23.80
2019-01-22T12:52:11.469Z,25.73
2019-01-22T12:54:18.925Z,28.00
2019-01-22T12:56:26.561Z,25.60
2019-01-22T12:58:33.942Z,26.17
2019-01-22T13:00:41.270Z,24.17
2019-01-22T13:02:48.592Z,22.70
2019-01-22T13:04:56.109Z,21.83
2019-01-22T13:07:03.547Z,22.53
2019-01-22T13:09:11.011Z,21.87
2019-01-22T13:11:18.425Z,24.10
2019-01-22T13:13:26.028Z,23.90
2019-01-22T13:15:33.436Z,24.67
2019-01-22T13:17:40.901Z,21.17
2019-01-22T13:19:48.353Z,22.00
2019-01-22T13:21:55.702Z,23.33
2019-01-22T13:24:03.279Z,24.07
2019-01-22T13:26:11.635Z,22.93
2019-01-22T13:28:19.301Z,24.83
2019-01-22T13:30:26.836Z,24.43
2019-01-22T13:32:34.581Z,25.43
2019-01-22T13:34:42.037Z,24.90
2019-01-22T13:36:49.461Z,27.30
2019-01-22T13:38:56.733Z,24.37
2019-01-22T13:41:04.030Z,23.77
2019-01-22T13:43:12.262Z,23.33
2019-01-22T13:45:23.085Z,22.90
2019-01-22T13:47:30.784Z,24.23
2019-01-22T13:49:38.282Z,24.73
2019-01-22T13:51:45.698Z,24.23
2019-01-22T13:53:54.360Z,25.50
2019-01-22T13:56:02.246Z,24.10
2019-01-22T13:58:09.640Z,25.40
2019-01-22T14:00:19.775Z,26.13
2019-01-22T14:02:27.156Z,27.60
2019-01-22T14:04:34.828Z,27.37
2019-01-22T14:06:42.367Z,28.00
2019-01-22T14:08:49.834Z,32.10
2019-01-22T14:10:57.330Z,33.00
2019-01-22T14:13:04.721Z,30.30
2019-01-22T14:15:19.518Z,29.20
2019-01-22T14:17:26.909Z,31.20
2019-01-22T14:19:34.382Z,30.63
2019-01-22T14:21:41.863Z,33.30
2019-01-22T14:23:49.245Z,35.83
2019-01-22T14:25:56.798Z,38.70
2019-01-22T14:28:04.137Z,29.83
2019-01-22T14:30:21.831Z,27.40
2019-01-22T14:32:29.579Z,29.67
2019-01-22T14:34:37.183Z,31.33
2019-01-22T14:36:44.710Z,36.93
2019-01-22T14:38:52.137Z,31.30
2019-01-22T14:40:59.990Z,35.97
2019-01-22T14:43:07.488Z,35.00
2019-01-22T14:45:15.712Z,38.37
2019-01-22T14:47:23.589Z,30.27
2019-01-22T14:49:31.183Z,31.13
2019-01-22T14:51:38.655Z,30.50
2019-01-22T14:53:46.248Z,33.37
2019-01-22T14:55:54.030Z,33.33
2019-01-22T14:58:01.284Z,34.57
2019-01-22T15:00:22.615Z,37.83
2019-01-22T15:02:30.380Z,36.77
2019-01-22T15:04:37.781Z,44.63
2019-01-22T15:06:45.490Z,57.80
2019-01-22T15:08:53.589Z,51.57
2019-01-22T15:11:01.901Z,40.53
2019-01-22T15:13:09.699Z,32.17
2019-01-22T15:15:18.719Z,31.47
2019-01-22T15:17:26.677Z,34.23
2019-01-22T15:19:34.158Z,32.60
2019-01-22T15:21:41.742Z,36.30
2019-01-22T15:23:49.195Z,33.60
2019-01-22T15:25:56.931Z,32.37
2019-01-22T15:28:04.395Z,27.97
2019-01-22T15:30:16.066Z,29.83
2019-01-22T15:32:23.615Z,30.93
2019-01-22T15:34:31.096Z,33.77
2019-01-22T15:36:39.181Z,33.80
2019-01-22T15:38:47.342Z,36.93
2019-01-22T15:40:55.091Z,35.60
2019-01-22T15:43:02.641Z,34.37
2019-01-22T15:45:10.200Z,34.53
2019-01-22T15:47:17.647Z,35.97
2019-01-22T15:49:25.579Z,36.33
2019-01-22T15:51:33.190Z,34.13
2019-01-22T15:53:40.823Z,35.50
2019-01-22T15:55:48.408Z,33.57
2019-01-22T15:57:56.242Z,38.20
2019-01-22T16:00:03.768Z,39.27
2019-01-22T16:02:11.252Z,44.63
2019-01-22T16:04:18.718Z,43.43
2019-01-22T16:06:26.275Z,41.97
2019-01-22T16:08:33.757Z,46.17
2019-01-22T16:10:41.218Z,46.27
2019-01-22T16:12:48.854Z,48.97
2019-01-22T16:14:56.821Z,57.23
2019-01-22T16:17:04.316Z,72.90
2019-01-22T16:19:11.740Z,92.27
2019-01-22T16:21:19.261Z,100.10
2019-01-22T16:23:26.939Z,102.57
2019-01-22T16:25:34.912Z,89.10
2019-01-22T16:27:42.622Z,84.87
2019-01-22T16:29:50.103Z,79.47
2019-01-22T16:31:57.692Z,69.90
2019-01-22T16:34:05.135Z,64.47
2019-01-22T16:36:12.676Z,67.43
2019-01-22T16:38:20.097Z,73.23
2019-01-22T16:40:27.440Z,75.27
2019-01-22T16:42:34.874Z,76.83
2019-01-22T16:44:42.658Z,74.07
2019-01-22T16:46:50.293Z,74.40
2019-01-22T16:48:58.124Z,64.27
2019-01-22T16:51:05.836Z,62.53
2019-01-22T16:53:21.884Z,52.00
2019-01-22T16:55:35.101Z,54.57
2019-01-22T16:57:42.797Z,53.93
2019-01-22T16:59:49.989Z,48.80
2019-01-22T17:01:57.143Z,50.83
2019-01-22T17:04:04.264Z,52.53
2019-01-22T17:06:11.660Z,51.07
2019-01-22T17:08:19.212Z,49.03
2019-01-22T17:10:26.389Z,48.10
2019-01-22T17:12:33.478Z,52.17
2019-01-22T17:14:41.307Z,49.83
2019-01-22T17:16:48.431Z,44.07
2019-01-22T17:18:55.872Z,44.83
2019-01-22T17:21:03.079Z,42.07
2019-01-22T17:23:16.332Z,45.47
2019-01-22T17:25:19.196Z,43.47
2019-01-22T17:27:26.897Z,44.20
2019-01-22T17:29:34.833Z,49.27
2019-01-22T17:32:04.564Z,50.93
2019-01-22T17:34:09.992Z,54.83
2019-01-22T17:36:17.422Z,61.03
2019-01-22T17:38:25.630Z,60.60
2019-01-22T17:40:33.324Z,62.33
2019-01-22T17:42:41.054Z,75.90
2019-01-22T17:44:48.720Z,78.33
2019-01-22T17:46:56.714Z,77.27
2019-01-22T17:49:04.214Z,67.43
2019-01-22T17:51:11.415Z,63.93
2019-01-22T17:53:19.277Z,69.77
2019-01-22T17:55:26.764Z,70.13
2019-01-22T17:57:34.319Z,70.20
2019-01-22T17:59:42.019Z,64.97
2019-01-22T18:01:49.486Z,64.17
2019-01-22T18:03:57.007Z,64.63
2019-01-22T18:06:04.806Z,61.10
2019-01-22T18:08:12.219Z,62.30
2019-01-22T18:10:19.831Z,61.57
2019-01-22T18:12:27.619Z,61.03
2019-01-22T18:14:35.056Z,62.50
2019-01-22T18:16:42.695Z,59.03
2019-01-22T18:18:50.077Z,58.37
2019-01-22T18:20:57.534Z,56.80
2019-01-22T18:23:05.234Z,58.60
2019-01-22T18:25:12.716Z,62.03
2019-01-22T18:27:20.773Z,61.10
2019-01-22T18:29:28.548Z,64.60
2019-01-22T18:31:35.861Z,62.03
2019-01-22T18:33:43.336Z,58.20
2019-01-22T18:35:50.686Z,61.93
2019-01-22T18:37:58.119Z,67.00
2019-01-22T18:40:05.918Z,71.43
2019-01-22T18:42:13.355Z,72.20
2019-01-22T18:44:20.766Z,80.70
2019-01-22T18:46:28.371Z,83.10
2019-01-22T18:48:35.713Z,90.30
2019-01-22T18:50:43.487Z,96.37
2019-01-22T18:52:51.075Z,93.87
2019-01-22T18:54:59.564Z,94.43
2019-01-22T18:57:07.299Z,93.37
2019-01-22T18:59:14.932Z,100.93
2019-01-22T19:01:22.638Z,100.23
2019-01-22T19:03:30.610Z,103.50
2019-01-22T19:05:38.062Z,107.63
2019-01-22T19:07:45.705Z,102.00
2019-01-22T19:09:53.364Z,104.50
2019-01-22T19:12:01.021Z,109.10
2019-01-22T19:14:08.533Z,104.77
2019-01-22T19:16:15.904Z,115.07
2019-01-22T19:18:23.403Z,110.77
2019-01-22T19:20:30.989Z,113.17
2019-01-22T19:22:38.694Z,110.00
2019-01-22T19:24:46.160Z,103.67
2019-01-22T19:26:53.616Z,93.57
2019-01-22T19:29:01.208Z,78.97
2019-01-22T19:31:09.340Z,75.77
2019-01-22T19:33:16.821Z,61.90
2019-01-22T19:35:24.271Z,60.70
2019-01-22T19:37:31.907Z,58.70
2019-01-22T19:39:40.933Z,63.87
2019-01-22T19:41:48.742Z,71.97
2019-01-22T19:43:56.039Z,65.03
2019-01-22T19:46:03.610Z,57.50
2019-01-22T19:48:11.269Z,52.10
2019-01-22T19:50:19.429Z,61.83
2019-01-22T19:52:26.964Z,55.53
2019-01-22T19:54:34.439Z,59.27
2019-01-22T19:56:42.214Z,58.30
2019-01-22T19:58:49.929Z,60.70
2019-01-22T20:00:58.332Z,59.60
2019-01-22T20:03:06.577Z,58.13
2019-01-22T20:05:14.068Z,54.40
2019-01-22T20:07:21.883Z,55.60
2019-01-22T20:09:29.736Z,56.33
2019-01-22T20:11:37.659Z,58.63
2019-01-22T20:13:45.215Z,60.40
2019-01-22T20:15:52.776Z,75.60
2019-01-22T20:18:00.059Z,77.63
2019-01-22T20:20:11.407Z,81.10
2019-01-22T20:22:18.861Z,79.13
2019-01-22T20:24:26.217Z,64.47
2019-01-22T20:26:35.532Z,66.30
2019-01-22T20:28:47.082Z,66.13
2019-01-22T20:30:54.613Z,68.10
2019-01-22T20:33:02.757Z,67.80
2019-01-22T20:35:10.200Z,70.57
2019-01-22T20:37:17.822Z,66.53
2019-01-22T20:39:25.416Z,76.37
2019-01-22T20:41:32.965Z,74.30
2019-01-22T20:43:40.438Z,70.73
2019-01-22T20:45:48.158Z,70.93
2019-01-22T20:47:55.871Z,72.67
2019-01-22T20:50:03.577Z,74.87
2019-01-22T20:52:11.111Z,76.20
2019-01-22T20:54:18.539Z,75.33
2019-01-22T20:56:25.770Z,88.90
2019-01-22T20:58:40.396Z,112.07
2019-01-22T21:00:43.509Z,112.83
2019-01-22T21:02:51.544Z,103.90
2019-01-22T21:04:59.938Z,102.47
2019-01-22T21:07:07.503Z,93.03
2019-01-22T21:09:15.284Z,84.53
2019-01-22T21:11:23.707Z,75.67
2019-01-22T21:13:31.524Z,73.53
2019-01-22T21:15:38.997Z,72.90
2019-01-22T21:17:46.462Z,65.63
2019-01-22T21:19:54.176Z,57.97
2019-01-22T21:22:01.830Z,57.03
2019-01-22T21:24:09.776Z,56.27
2019-01-22T21:26:22.157Z,53.00
2019-01-22T21:28:29.679Z,51.80
2019-01-22T21:30:38.642Z,51.83
2019-01-22T21:32:46.154Z,52.23
2019-01-22T21:34:53.626Z,53.67
2019-01-22T21:37:01.681Z,57.07
2019-01-22T21:39:10.073Z,55.00
2019-01-22T21:41:17.500Z,52.13
2019-01-22T21:43:25.547Z,52.03
2019-01-22T21:45:33.100Z,56.83
2019-01-22T21:47:40.583Z,53.77
2019-01-22T21:49:48.411Z,54.13
2019-01-22T21:51:55.763Z,53.57
2019-01-22T21:54:03.550Z,56.30
2019-01-22T21:56:11.143Z,70.07
2019-01-22T21:58:18.889Z,100.07
2019-01-22T22:00:27.827Z,81.83
2019-01-22T22:02:35.416Z,72.60
2019-01-22T22:04:42.931Z,68.10
2019-01-22T22:06:50.381Z,68.03
2019-01-22T22:08:57.871Z,67.37
2019-01-22T22:11:05.206Z,65.23
2019-01-22T22:13:12.865Z,62.30
2019-01-22T22:15:22.547Z,57.70
2019-01-22T22:17:29.942Z,51.63
2019-01-22T22:19:37.530Z,48.80
2019-01-22T22:21:45.354Z,48.87
2019-01-22T22:23:52.849Z,50.60
2019-01-22T22:26:00.037Z,57.53
2019-01-22T22:28:07.539Z,60.80
2019-01-22T22:30:27.431Z,62.90
2019-01-22T22:32:35.986Z,63.90
2019-01-22T22:34:43.746Z,63.47
2019-01-22T22:36:51.195Z,55.23
2019-01-22T22:38:58.563Z,51.57
2019-01-22T22:41:06.502Z,53.00
2019-01-22T22:43:14.656Z,62.77
2019-01-22T22:45:24.172Z,58.67
2019-01-22T22:47:31.962Z,58.93
2019-01-22T22:49:39.675Z,61.70
2019-01-22T22:51:47.023Z,57.53
2019-01-22T22:53:54.860Z,57.57
2019-01-22T22:56:02.347Z,66.13
2019-01-22T22:58:09.713Z,68.43
2019-01-22T23:00:53.033Z,65.93
2019-01-22T23:03:00.855Z,57.07
2019-01-22T23:05:08.342Z,60.33
2019-01-22T23:07:15.853Z,56.70
2019-01-22T23:09:23.333Z,54.57
2019-01-22T23:11:30.775Z,57.77
2019-01-22T23:13:38.024Z,54.10
2019-01-22T23:15:45.548Z,51.90
2019-01-22T23:17:53.075Z,52.87
2019-01-22T23:20:00.525Z,51.17
2019-01-22T23:22:07.995Z,50.77
2019-01-22T23:24:15.296Z,54.30
2019-01-22T23:26:22.562Z,49.77
2019-01-22T23:28:30.050Z,49.00
2019-01-22T23:30:37.433Z,50.27
2019-01-22T23:32:44.957Z,49.43
2019-01-22T23:34:52.186Z,52.27
2019-01-22T23:36:59.683Z,50.57
2019-01-22T23:39:07.386Z,48.30
2019-01-22T23:41:14.765Z,49.03
2019-01-22T23:43:21.738Z,46.90
2019-01-22T23:45:29.175Z,45.67
2019-01-22T23:47:36.649Z,43.77
2019-01-22T23:49:44.076Z,48.23
2019-01-22T23:51:52.731Z,46.07
2019-01-22T23:54:00.078Z,42.20
2019-01-22T23:56:07.459Z,41.63
2019-01-22T23:58:15.252Z,43.23
